Time;durP1;ratioP1;P1;durP2;ratioP2;P2;SDS_P1;SDS_P2;PMS_P1;PMS_P2;Temp;Humidity;BMP_temperature;BMP_pressure;BME280_temperature;BME280_humidity;BME280_pressure;Samples;Min_cycle;Max_cycle;Signal;HPM_P1;HPM_P2
2022/03/10 00:00:45;;;;;;;53.42;25.80;;;;;;;3.20;65.13;101450.09;5034613;28;20053;-74
2022/03/10 00:03:10;;;;;;;61.33;29.92;;;;;;;3.18;65.40;101444.84;5034634;28;20419;-76
2022/03/10 00:05:36;;;;;;;50.28;25.88;;;;;;;3.15;65.73;101445.66;5034235;28;20476;-76
2022/03/10 00:08:01;;;;;;;50.03;23.85;;;;;;;3.20;65.29;101448.06;5034620;28;20071;-76
2022/03/10 00:10:26;;;;;;;49.88;24.52;;;;;;;3.25;65.63;101446.88;5034093;28;20029;-76
2022/03/10 00:12:52;;;;;;;47.42;24.50;;;;;;;3.35;65.50;101446.88;5000063;28;20459;-76
2022/03/10 00:15:22;;;;;;;49.63;23.45;;;;;;;3.38;65.50;101442.44;5016243;28;20074;-76
2022/03/10 00:17:47;;;;;;;50.30;23.27;;;;;;;3.43;64.88;101447.66;5034211;28;20103;-75
2022/03/10 00:20:12;;;;;;;51.75;26.52;;;;;;;3.39;65.42;101442.03;5015899;28;20061;-75
2022/03/10 00:22:49;;;;;;;47.72;24.33;;;;;;;3.38;65.84;101443.25;5016071;28;20114;-76
2022/03/10 00:25:15;;;;;;;47.05;23.88;;;;;;;3.34;65.44;101450.09;5034435;28;20044;-75
2022/03/10 00:27:41;;;;;;;51.95;23.92;;;;;;;3.32;65.92;101458.13;5016334;28;20393;-76
2022/03/10 00:30:07;;;;;;;46.53;25.10;;;;;;;3.34;65.82;101453.72;5033753;28;20471;-75
2022/03/10 00:32:32;;;;;;;53.13;27.00;;;;;;;3.37;65.64;101463.34;5016470;28;20071;-75
2022/03/10 00:34:58;;;;;;;58.90;27.73;;;;;;;3.40;65.96;101474.59;5033708;28;20413;-75
2022/03/10 00:37:23;;;;;;;57.40;26.67;;;;;;;3.42;65.35;101471.41;5016846;28;20112;-74
2022/03/10 00:39:48;;;;;;;49.33;27.20;;;;;;;3.36;65.37;101465.34;5015822;28;20021;-75
2022/03/10 00:42:14;;;;;;;52.70;26.02;;;;;;;3.32;65.75;101461.75;5016089;28;20057;-76
2022/03/10 00:44:39;;;;;;;56.45;27.77;;;;;;;3.31;65.90;101479.03;5015597;28;20029;-74
2022/03/10 00:47:04;;;;;;;51.95;27.70;;;;;;;3.22;65.88;101476.59;5015721;28;20497;-76
2022/03/10 00:49:30;;;;;;;57.45;28.42;;;;;;;3.21;65.98;101477.00;5033115;28;20136;-76
2022/03/10 00:51:55;;;;;;;60.45;27.85;;;;;;;3.17;66.29;101479.00;5016170;28;20037;-75
2022/03/10 00:54:20;;;;;;;60.25;30.50;;;;;;;3.17;66.60;101485.44;5033841;28;20037;-75
2022/03/10 00:56:46;;;;;;;64.55;33.33;;;;;;;3.20;66.73;101479.03;5033109;28;20482;-76
2022/03/10 00:59:11;;;;;;;59.08;31.98;;;;;;;3.23;66.25;101483.03;5030890;28;20419;-74
2022/03/10 01:01:36;;;;;;;61.88;29.50;;;;;;;3.26;66.50;101473.78;5013427;28;20136;-76
2022/03/10 01:04:02;;;;;;;55.10;29.33;;;;;;;3.32;66.31;101494.72;5013239;28;20034;-75
2022/03/10 01:06:27;;;;;;;56.00;29.10;;;;;;;3.36;66.42;101492.72;5013590;28;20106;-76
2022/03/10 01:08:52;;;;;;;61.83;31.42;;;;;;;3.33;66.16;101480.25;5031007;28;20017;-77
2022/03/10 01:11:18;;;;;;;55.90;29.75;;;;;;;3.36;66.21;101487.88;4997275;28;20164;-75
2022/03/10 01:13:43;;;;;;;61.22;30.73;;;;;;;3.40;66.36;101487.91;5031572;28;20451;-76
2022/03/10 01:16:09;;;;;;;62.38;29.30;;;;;;;3.42;66.44;101493.91;5015066;28;20107;-76
2022/03/10 01:18:34;;;;;;;61.92;29.52;;;;;;;3.45;66.51;101496.72;5015480;28;20026;-75
2022/03/10 01:21:00;;;;;;;61.22;29.13;;;;;;;3.44;66.38;101492.34;5033260;28;20025;-76
2022/03/10 01:23:25;;;;;;;57.83;28.52;;;;;;;3.52;66.58;101495.13;5033206;28;20171;-76
2022/03/10 01:25:50;;;;;;;61.13;30.00;;;;;;;3.56;66.18;101502.38;5033037;28;20021;-76
2022/03/10 01:28:16;;;;;;;58.65;29.48;;;;;;;3.60;66.27;101494.72;4998796;28;20039;-76
2022/03/10 01:30:42;;;;;;;59.42;28.15;;;;;;;3.64;66.30;101491.94;4998796;28;20033;-75
2022/03/10 01:33:08;;;;;;;57.25;28.83;;;;;;;3.69;66.55;101491.53;5003733;28;20494;-76
2022/03/10 01:35:34;;;;;;;64.10;31.30;;;;;;;3.71;66.61;101498.34;5021925;28;20021;-77
2022/03/10 01:37:59;;;;;;;72.95;32.35;;;;;;;3.71;66.30;101504.00;5039626;28;20026;-75
2022/03/10 01:40:25;;;;;;;61.30;32.40;;;;;;;3.66;66.90;101498.75;5039462;28;20116;-76
2022/03/10 01:42:50;;;;;;;60.85;30.90;;;;;;;3.60;66.85;101494.72;5022069;28;20018;-75
2022/03/10 01:45:16;;;;;;;62.67;31.30;;;;;;;3.63;66.71;101502.41;5021774;28;20025;-76
2022/03/10 01:47:42;;;;;;;64.97;32.70;;;;;;;3.69;66.36;101511.25;5005252;28;20528;-75
2022/03/10 01:50:10;;;;;;;71.40;35.97;;;;;;;3.66;67.01;101512.84;5021537;28;20140;-75
2022/03/10 01:52:35;;;;;;;69.75;34.97;;;;;;;3.64;67.12;101512.47;5039368;28;20021;-75
2022/03/10 01:55:02;;;;;;;62.08;30.85;;;;;;;3.61;66.99;101503.97;5022080;28;20033;-75
2022/03/10 01:57:28;;;;;;;66.03;31.58;;;;;;;3.48;67.37;101484.69;5039341;28;20082;-76
2022/03/10 01:59:53;;;;;;;65.68;31.45;;;;;;;3.63;67.36;101508.03;5005244;28;20025;-75
2022/03/10 02:02:19;;;;;;;64.97;31.73;;;;;;;3.66;67.11;101512.84;5021716;28;20374;-74
2022/03/10 02:04:44;;;;;;;62.58;30.75;;;;;;;3.63;67.39;101518.50;5039490;28;20491;-74
2022/03/10 02:10:16;;;;;;;81.47;38.83;;;;;;;3.64;67.49;101514.47;5021553;28;20589;-75
2022/03/10 02:12:40;;;;;;;73.15;34.17;;;;;;;3.64;67.43;101520.91;5039659;28;20548;-74
2022/03/10 02:18:02;;;;;;;66.80;31.88;;;;;;;3.50;68.08;101526.53;5024299;28;20032;-75
2022/03/10 02:20:28;;;;;;;76.10;33.13;;;;;;;3.44;68.06;101525.31;5021429;28;20025;-75
2022/03/10 02:22:53;;;;;;;62.33;31.70;;;;;;;3.37;68.31;101533.75;5005064;28;20022;-75
2022/03/10 02:25:21;;;;;;;77.30;32.83;;;;;;;3.33;68.43;101532.94;5021440;28;20053;-75
2022/03/10 02:27:52;;;;;;;61.10;29.67;;;;;;;3.40;68.89;101538.59;5005111;28;20118;-75
2022/03/10 02:30:19;;;;;;;65.90;32.03;;;;;;;3.46;68.97;101540.59;5021324;28;20080;-75
2022/03/10 02:32:45;;;;;;;73.15;32.30;;;;;;;3.54;68.60;101546.25;5021475;28;20488;-75
2022/03/10 02:35:10;;;;;;;73.65;34.17;;;;;;;3.57;69.40;101543.44;5021229;28;20033;-76
2022/03/10 02:37:36;;;;;;;62.75;32.33;;;;;;;3.64;69.30;101554.72;5039089;28;20023;-76
2022/03/10 02:40:01;;;;;;;64.35;31.90;;;;;;;3.67;69.33;101555.91;5038723;28;20431;-74
2022/03/10 02:42:27;;;;;;;56.17;30.20;;;;;;;3.72;69.11;101558.34;5038844;28;20036;-75
2022/03/10 02:44:52;;;;;;;61.85;31.42;;;;;;;3.77;68.51;101569.19;5017678;28;20017;-75
2022/03/10 02:47:18;;;;;;;68.90;30.70;;;;;;;3.86;68.76;101559.13;5018373;28;20052;-76
2022/03/10 02:49:43;;;;;;;64.88;31.35;;;;;;;3.86;69.34;101558.34;5035685;28;20486;-75
2022/03/10 02:52:09;;;;;;;61.28;30.83;;;;;;;3.89;69.21;101561.16;5017963;28;20088;-75
2022/03/10 02:54:34;;;;;;;65.10;33.22;;;;;;;3.95;68.70;101578.47;5018355;28;20079;-76
2022/03/10 02:57:00;;;;;;;68.38;31.23;;;;;;;4.03;69.08;101576.47;5018648;28;20105;-77
2022/03/10 02:59:25;;;;;;;64.88;30.20;;;;;;;4.04;69.02;101578.88;5035698;28;20018;-75
2022/03/10 03:01:51;;;;;;;63.65;29.95;;;;;;;3.99;69.40;101565.19;5017992;28;20030;-76
2022/03/10 03:04:16;;;;;;;62.10;28.58;;;;;;;4.00;69.31;101571.59;5018035;28;20025;-75
2022/03/10 03:06:41;;;;;;;67.45;31.58;;;;;;;4.04;69.01;101581.69;5017664;28;20533;-74
2022/03/10 03:09:07;;;;;;;65.72;32.95;;;;;;;4.08;69.46;101585.31;5017741;28;20026;-75
2022/03/10 03:11:33;;;;;;;61.92;30.60;;;;;;;4.11;69.17;101586.50;5001305;28;20025;-76
2022/03/10 03:13:59;;;;;;;61.85;28.67;;;;;;;4.03;69.61;101584.91;5001334;28;20025;-76
2022/03/10 03:16:25;;;;;;;67.47;31.73;;;;;;;4.11;69.53;101589.34;5001393;28;20018;-74
2022/03/10 03:18:51;;;;;;;59.85;28.35;;;;;;;4.12;69.67;101586.13;5035792;28;20017;-74
2022/03/10 03:21:17;;;;;;;55.97;28.38;;;;;;;4.06;70.26;101586.91;5035940;28;20030;-76
2022/03/10 03:23:43;;;;;;;63.42;29.02;;;;;;;4.14;70.09;101592.19;5036112;28;20028;-77
2022/03/10 03:26:08;;;;;;;57.60;28.65;;;;;;;4.06;69.56;101589.72;5017375;28;20108;-75
2022/03/10 03:28:33;;;;;;;55.35;28.05;;;;;;;4.11;69.51;101611.88;5017201;28;20493;-75
2022/03/10 03:30:59;;;;;;;56.65;29.88;;;;;;;4.16;69.97;101619.94;5017237;28;20526;-74
2022/03/10 03:33:24;;;;;;;56.38;26.98;;;;;;;4.07;70.30;101616.72;5017131;28;20017;-74
2022/03/10 03:35:49;;;;;;;54.58;28.60;;;;;;;4.05;69.62;101619.94;5000847;28;20014;-75
2022/03/10 03:38:15;;;;;;;55.38;29.75;;;;;;;3.97;70.32;101628.78;5000854;28;20573;-75
2022/03/10 03:40:40;;;;;;;54.58;28.67;;;;;;;3.97;70.79;101629.59;5001583;28;20022;-76
2022/03/10 03:43:06;;;;;;;47.40;27.63;;;;;;;3.82;70.59;101633.59;5034833;28;20032;-76
2022/03/10 03:45:31;;;;;;;54.00;29.67;;;;;;;3.79;71.25;101628.78;5000823;28;20017;-75
2022/03/10 03:47:57;;;;;;;58.47;28.73;;;;;;;3.76;71.37;101643.66;5016692;28;20028;-75
2022/03/10 03:50:22;;;;;;;50.10;26.52;;;;;;;3.71;71.29;101638.41;5013451;28;20360;-76
2022/03/10 03:52:47;;;;;;;50.50;28.05;;;;;;;3.59;71.56;101645.25;5013508;28;20144;-74
2022/03/10 03:55:13;;;;;;;53.13;28.17;;;;;;;3.51;71.62;101639.97;5013526;28;20100;-74
2022/03/10 03:57:38;;;;;;;51.05;28.90;;;;;;;3.43;71.81;101630.72;5015334;28;20049;-76
2022/03/10 04:00:06;;;;;;;58.83;29.83;;;;;;;3.33;72.27;101639.94;5014321;28;20072;-74
2022/03/10 04:02:31;;;;;;;55.08;29.77;;;;;;;3.32;72.31;101653.19;5013287;28;20105;-75
2022/03/10 04:04:57;;;;;;;54.85;29.85;;;;;;;3.36;72.67;101658.81;5015011;28;20491;-75
2022/03/10 04:07:22;;;;;;;50.83;28.45;;;;;;;3.30;72.92;101655.63;5013280;28;20468;-77
2022/03/10 04:09:48;;;;;;;48.75;25.92;;;;;;;3.46;73.00;101670.13;5014667;28;20025;-75
2022/03/10 04:12:14;;;;;;;46.88;26.63;;;;;;;3.46;72.80;101670.13;5013754;28;20418;-76
2022/03/10 04:14:39;;;;;;;57.85;29.70;;;;;;;3.40;72.71;101668.91;5018169;28;20026;-74
2022/03/10 04:17:04;;;;;;;49.20;29.45;;;;;;;3.35;72.88;101674.94;5018721;28;20030;-75
2022/03/10 04:19:30;;;;;;;50.35;25.98;;;;;;;3.37;72.53;101678.16;5005002;28;20025;-75
2022/03/10 04:21:55;;;;;;;48.70;27.88;;;;;;;3.26;72.68;101677.28;5022476;28;20053;-75
2022/03/10 04:24:20;;;;;;;62.15;33.22;;;;;;;3.23;72.80;101682.91;5024154;28;20045;-75
2022/03/10 04:26:46;;;;;;;56.00;29.48;;;;;;;3.20;72.74;101690.16;5004433;28;20162;-74
2022/03/10 04:29:12;;;;;;;47.03;28.63;;;;;;;3.14;72.60;101688.09;5018339;28;20021;-75
2022/03/10 04:31:37;;;;;;;41.17;24.30;;;;;;;3.02;72.75;101683.59;5021432;28;20021;-77
2022/03/10 04:34:04;;;;;;;43.63;24.30;;;;;;;2.92;72.61;101678.72;5023050;28;20482;-75
2022/03/10 04:36:29;;;;;;;45.17;23.88;;;;;;;2.86;72.59;101697.19;5021231;28;20022;-75
2022/03/10 04:38:55;;;;;;;36.55;21.25;;;;;;;2.75;72.63;101705.56;5013200;28;20077;-74
2022/03/10 04:41:20;;;;;;;38.55;21.13;;;;;;;2.73;72.68;101702.31;5012895;28;20340;-74
2022/03/10 04:43:46;;;;;;;33.75;19.25;;;;;;;2.60;72.30;101710.28;4996504;28;20021;-76
2022/03/10 04:46:11;;;;;;;34.30;18.40;;;;;;;2.60;72.10;101718.72;5013355;28;20065;-74
2022/03/10 04:48:36;;;;;;;37.42;19.98;;;;;;;2.51;72.44;101718.25;5012563;28;20030;-75
2022/03/10 04:51:02;;;;;;;37.88;18.92;;;;;;;2.52;72.20;101719.03;5012450;28;20061;-75
2022/03/10 04:53:27;;;;;;;31.60;18.85;;;;;;;2.41;72.33;101727.38;5012637;28;20055;-75
2022/03/10 04:55:52;;;;;;;34.28;19.75;;;;;;;2.35;72.50;101734.56;5012890;28;20335;-75
2022/03/10 04:58:18;;;;;;;36.33;20.00;;;;;;;2.31;72.69;101736.53;5013769;28;20537;-75
2022/03/10 05:00:43;;;;;;;34.17;20.35;;;;;;;2.31;72.62;101735.72;5013724;28;20435;-75
2022/03/10 05:03:09;;;;;;;34.85;19.60;;;;;;;2.25;72.97;101738.06;4996022;28;20129;-74
2022/03/10 05:05:34;;;;;;;33.95;21.10;;;;;;;2.15;72.85;101733.97;5013923;28;20026;-74
2022/03/10 05:08:00;;;;;;;38.88;20.55;;;;;;;2.12;73.31;101745.19;5018451;28;20470;-74
2022/03/10 05:10:25;;;;;;;35.45;20.52;;;;;;;2.05;73.35;101745.09;5015557;28;20052;-75
2022/03/10 05:13:02;;;;;;;34.50;20.08;;;;;;;2.07;73.13;101756.78;5033299;28;20040;-74
2022/03/10 05:15:31;;;;;;;35.17;20.60;;;;;;;2.02;73.33;101765.56;5016023;28;20021;-75
2022/03/10 05:17:57;;;;;;;38.58;20.15;;;;;;;2.09;72.79;101768.41;5031892;28;20022;-74
2022/03/10 05:20:25;;;;;;;33.95;18.40;;;;;;;2.04;72.64;101769.56;5015441;28;20390;-75
2022/03/10 05:22:55;;;;;;;33.17;18.42;;;;;;;2.09;72.33;101772.03;5032310;28;20025;-75
2022/03/10 05:25:22;;;;;;;38.25;19.55;;;;;;;2.09;72.52;101774.03;5033208;28;20112;-75
2022/03/10 05:27:47;;;;;;;33.67;17.58;;;;;;;2.13;72.20;101780.50;5031749;28;20064;-75
2022/03/10 05:30:14;;;;;;;38.22;18.08;;;;;;;2.14;71.88;101788.56;5015303;28;20413;-72
2022/03/10 05:32:40;;;;;;;33.97;16.88;;;;;;;2.18;71.51;101795.00;5032328;28;20025;-75
2022/03/10 05:35:07;;;;;;;32.53;16.88;;;;;;;2.26;71.17;101795.09;5015287;28;20384;-76
2022/03/10 05:37:35;;;;;;;29.83;15.45;;;;;;;2.41;70.47;101799.69;5015578;28;20025;-77
2022/03/10 05:40:01;;;;;;;27.75;15.65;;;;;;;2.48;70.69;101802.53;5015469;28;20507;-77
2022/03/10 05:42:28;;;;;;;36.50;15.02;;;;;;;2.51;69.85;101804.59;5032198;28;20057;-77
2022/03/10 05:44:53;;;;;;;26.70;13.80;;;;;;;2.59;69.14;101809.91;5015558;28;20111;-75
2022/03/10 05:47:18;;;;;;;22.90;13.93;;;;;;;2.71;68.61;101800.38;5032326;28;20032;-76
2022/03/10 05:49:45;;;;;;;28.40;15.13;;;;;;;2.79;68.68;101812.47;5035747;28;20045;-74
2022/03/10 05:52:10;;;;;;;22.33;13.25;;;;;;;2.92;67.73;101814.59;5018616;28;20033;-75
2022/03/10 05:54:36;;;;;;;25.27;14.05;;;;;;;3.08;67.05;101827.59;5035881;28;20021;-75
2022/03/10 05:57:02;;;;;;;22.65;13.07;;;;;;;3.28;65.90;101821.31;5036212;28;20029;-75
2022/03/10 05:59:27;;;;;;;24.05;13.32;;;;;;;3.37;65.31;101835.03;5020471;28;20021;-78
2022/03/10 06:01:53;;;;;;;30.42;13.55;;;;;;;3.41;65.29;101824.59;5054625;28;20021;-78
2022/03/10 06:04:18;;;;;;;26.58;14.00;;;;;;;3.69;64.30;101830.41;5055637;28;20218;-75
2022/03/10 06:06:43;;;;;;;25.17;13.75;;;;;;;3.75;63.75;101830.84;5036742;28;20190;-78
2022/03/10 06:09:09;;;;;;;21.92;12.60;;;;;;;3.78;63.13;101847.75;5055642;28;20025;-75
2022/03/10 06:11:35;;;;;;;24.15;13.35;;;;;;;3.68;62.71;101856.97;5036569;28;20033;-75
2022/03/10 06:14:00;;;;;;;28.25;13.70;;;;;;;3.66;62.96;101858.53;5054771;28;20025;-79
2022/03/10 06:16:26;;;;;;;25.15;13.75;;;;;;;3.56;62.47;101862.91;5039684;28;20031;-77
2022/03/10 06:18:52;;;;;;;23.55;12.65;;;;;;;3.81;62.10;101861.06;5031245;28;20048;-74
2022/03/10 06:21:17;;;;;;;22.55;12.50;;;;;;;4.40;61.73;101866.53;5004792;28;20088;-75
2022/03/10 06:23:43;;;;;;;25.85;12.88;;;;;;;5.20;60.27;101860.19;5020108;28;20486;-76
2022/03/10 06:26:08;;;;;;;27.92;13.65;;;;;;;6.38;55.92;101840.88;5038073;28;20048;-75
2022/03/10 06:28:34;;;;;;;26.38;12.90;;;;;;;6.75;54.40;101848.75;5036972;28;20371;-75
2022/03/10 06:30:59;;;;;;;24.13;12.68;;;;;;;6.60;53.64;101858.56;5037267;28;20040;-74
2022/03/10 06:33:25;;;;;;;21.33;12.35;;;;;;;6.53;54.24;101855.75;5036601;28;20300;-74
2022/03/10 06:35:50;;;;;;;24.95;13.00;;;;;;;6.60;55.05;101865.03;5000604;28;20032;-74
2022/03/10 06:38:16;;;;;;;20.15;11.10;;;;;;;6.66;53.28;101868.25;5034202;28;20111;-75
2022/03/10 06:40:42;;;;;;;22.17;13.02;;;;;;;6.51;53.61;101879.63;5016748;28;20022;-74
2022/03/10 06:43:07;;;;;;;24.25;12.65;;;;;;;6.49;51.56;101881.25;5045927;28;20024;-75
2022/03/10 06:45:32;;;;;;;22.75;11.68;;;;;;;6.70;51.75;101871.84;5036141;28;20017;-74
2022/03/10 06:47:58;;;;;;;23.35;12.50;;;;;;;7.27;50.90;101887.19;5033928;28;20103;-75
2022/03/10 06:50:24;;;;;;;21.45;12.15;;;;;;;8.05;49.86;101877.91;5052501;28;20262;-74
2022/03/10 06:52:51;;;;;;;25.20;12.10;;;;;;;10.24;45.10;101892.72;5053641;28;20029;-75
2022/03/10 06:55:19;;;;;;;16.55;10.50;;;;;;;12.15;39.50;101875.84;5053760;28;20402;-76
2022/03/10 06:57:44;;;;;;;21.42;11.82;;;;;;;13.24;36.89;101869.59;5036419;28;20074;-77
2022/03/10 07:00:10;;;;;;;19.55;11.35;;;;;;;13.98;34.54;101879.72;5053903;28;20058;-76
2022/03/10 07:02:35;;;;;;;24.80;12.55;;;;;;;15.01;33.95;101879.47;5019259;28;20024;-75
2022/03/10 07:05:02;;;;;;;17.77;11.32;;;;;;;16.26;31.78;101867.94;5054009;28;20039;-74
2022/03/10 07:07:27;;;;;;;19.63;11.82;;;;;;;17.01;29.59;101873.06;5053308;28;20032;-77
2022/03/10 07:09:52;;;;;;;17.13;10.45;;;;;;;17.95;28.45;101863.72;5052896;28;20021;-76
2022/03/10 07:12:18;;;;;;;31.67;12.32;;;;;;;19.46;25.99;101854.88;5053121;28;20429;-75
2022/03/10 07:14:43;;;;;;;24.75;10.73;;;;;;;20.88;24.03;101853.38;5035819;28;20116;-74
2022/03/10 07:17:08;;;;;;;17.50;10.95;;;;;;;21.20;22.10;101868.69;5053892;28;20523;-73
2022/03/10 07:19:34;;;;;;;21.85;9.88;;;;;;;22.13;20.90;101872.66;5054523;28;20083;-74
2022/03/10 07:21:59;;;;;;;17.67;10.23;;;;;;;22.35;20.48;101874.81;5055386;28;20028;-75
2022/03/10 07:24:25;;;;;;;27.75;12.38;;;;;;;22.38;19.94;101870.88;5055387;28;20025;-74
2022/03/10 07:26:51;;;;;;;24.02;10.85;;;;;;;23.24;19.00;101883.63;5055215;28;20150;-74
2022/03/10 07:29:16;;;;;;;19.33;11.10;;;;;;;24.27;18.19;101890.28;5021031;28;20134;-75
2022/03/10 07:31:42;;;;;;;16.10;10.27;;;;;;;24.91;17.75;101888.84;5027133;28;20024;-74
2022/03/10 07:34:07;;;;;;;13.80;9.40;;;;;;;24.74;16.55;101880.19;5048325;28;20108;-76
2022/03/10 07:36:32;;;;;;;17.75;8.02;;;;;;;25.45;15.93;101891.81;5046864;28;20016;-73
2022/03/10 07:38:58;;;;;;;14.15;8.50;;;;;;;24.87;15.34;101886.19;5042964;28;20374;-72
2022/03/10 07:41:23;;;;;;;13.82;8.70;;;;;;;24.58;15.80;101892.75;5061316;28;20032;-73
2022/03/10 07:43:48;;;;;;;21.65;8.05;;;;;;;25.28;15.51;101894.09;5036590;28;20608;-71
2022/03/10 07:46:14;;;;;;;18.45;8.07;;;;;;;24.68;15.49;101896.13;5040926;28;20036;-73
2022/03/10 07:48:39;;;;;;;16.60;7.10;;;;;;;24.38;15.50;101902.66;5016909;28;20065;-73
2022/03/10 07:51:05;;;;;;;12.23;6.70;;;;;;;25.71;15.22;101895.00;5034552;28;20430;-72
2022/03/10 07:53:32;;;;;;;13.15;6.55;;;;;;;26.13;14.83;101890.53;5035038;28;20072;-75
2022/03/10 07:55:58;;;;;;;10.57;7.28;;;;;;;25.41;15.22;101905.88;5034686;28;20098;-73
2022/03/10 07:58:23;;;;;;;17.85;6.47;;;;;;;22.85;16.99;101906.09;5048024;28;20478;-71
2022/03/10 08:00:49;;;;;;;24.20;7.45;;;;;;;21.08;18.40;101908.34;4994190;28;20025;-71
2022/03/10 08:03:15;;;;;;;17.95;6.93;;;;;;;20.71;18.29;101909.56;5074321;28;20096;-74
2022/03/10 08:05:40;;;;;;;16.60;6.60;;;;;;;21.26;17.70;101906.41;5056618;28;20044;-74
2022/03/10 08:08:06;;;;;;;12.60;6.28;;;;;;;21.52;17.29;101904.19;5074075;28;20465;-72
2022/03/10 08:10:31;;;;;;;16.17;7.13;;;;;;;21.55;17.48;101911.88;5074099;28;20025;-74
2022/03/10 08:12:57;;;;;;;18.77;7.57;;;;;;;21.43;17.51;101902.31;5056043;28;20017;-74
2022/03/10 08:15:23;;;;;;;17.17;8.27;;;;;;;21.42;17.96;101912.31;5056292;28;20035;-73
2022/03/10 08:17:48;;;;;;;16.88;8.95;;;;;;;20.96;18.58;101909.56;5074054;28;20504;-72
2022/03/10 08:20:13;;;;;;;22.63;8.65;;;;;;;20.25;19.09;101910.34;5073642;28;20025;-73
2022/03/10 08:22:39;;;;;;;16.90;8.95;;;;;;;19.57;20.31;101918.63;5073824;28;20024;-74
2022/03/10 08:25:05;;;;;;;14.23;7.70;;;;;;;19.10;20.64;101926.25;5073778;28;20024;-73
2022/03/10 08:27:30;;;;;;;18.33;9.00;;;;;;;18.65;21.53;101926.78;5055705;28;20125;-72
2022/03/10 08:29:55;;;;;;;25.65;9.35;;;;;;;18.20;22.29;101916.41;5073634;28;20403;-71
2022/03/10 08:32:25;;;;;;;15.95;8.65;;;;;;;18.34;21.55;101930.06;5073683;28;20032;-73
2022/03/10 08:34:50;;;;;;;13.00;8.43;;;;;;;17.38;23.04;101920.56;5073865;28;20074;-71
2022/03/10 08:37:18;;;;;;;13.65;8.57;;;;;;;16.90;23.96;101919.63;5073607;28;20028;-76
2022/03/10 08:39:44;;;;;;;14.95;8.07;;;;;;;16.79;23.42;101925.88;5009734;28;20036;-75
2022/03/10 08:42:09;;;;;;;11.55;6.40;;;;;;;16.72;22.54;101913.94;5052332;28;20029;-80
2022/03/10 08:44:34;;;;;;;23.98;7.95;;;;;;;16.34;23.40;101918.09;5016867;28;20083;-76
2022/03/10 08:47:00;;;;;;;18.30;7.43;;;;;;;16.34;23.47;101914.41;5032736;28;20029;-72
2022/03/10 08:49:25;;;;;;;15.30;6.05;;;;;;;16.54;22.35;101936.94;5033553;28;20064;-72
2022/03/10 08:51:51;;;;;;;26.30;8.40;;;;;;;15.81;22.82;101917.56;4999626;28;20025;-74
2022/03/10 08:54:16;;;;;;;11.55;6.05;;;;;;;15.43;23.61;101932.31;5033540;28;20120;-75
2022/03/10 08:56:42;;;;;;;14.57;6.90;;;;;;;15.24;23.30;101939.25;5032320;28;20036;-74
2022/03/10 08:59:07;;;;;;;11.48;7.15;;;;;;;14.65;24.92;101943.97;5037066;28;20531;-74
2022/03/10 09:01:32;;;;;;;13.30;7.05;;;;;;;14.30;25.09;101945.31;5035603;28;20021;-73
2022/03/10 09:03:58;;;;;;;15.70;6.57;;;;;;;14.27;23.52;101943.34;5036100;28;20029;-73
2022/03/10 09:06:24;;;;;;;30.40;7.53;;;;;;;13.50;25.17;101941.13;5036373;28;20398;-74
2022/03/10 09:08:49;;;;;;;13.60;7.20;;;;;;;13.14;25.97;101945.16;5036480;28;20075;-74
2022/03/10 09:11:16;;;;;;;11.98;6.97;;;;;;;13.14;25.58;101942.28;5037715;28;20024;-78
2022/03/10 09:13:44;;;;;;;32.00;8.65;;;;;;;12.61;25.41;101952.47;5031983;28;20028;-77
2022/03/10 09:16:09;;;;;;;12.00;6.60;;;;;;;11.98;26.84;101943.63;5023583;28;20029;-73
2022/03/10 09:18:35;;;;;;;15.98;7.00;;;;;;;11.74;27.65;101942.25;5048326;28;20029;-73
2022/03/10 09:21:02;;;;;;;21.67;7.70;;;;;;;11.34;28.34;101938.72;5036854;28;20025;-73
2022/03/10 09:23:27;;;;;;;16.27;6.25;;;;;;;11.26;27.72;101944.59;5017097;28;20029;-72
2022/03/10 09:25:52;;;;;;;9.90;6.90;;;;;;;11.01;28.88;101949.25;5016915;28;20100;-72
2022/03/10 09:28:18;;;;;;;12.45;7.28;;;;;;;10.87;29.52;101947.53;4999166;28;20021;-74
2022/03/10 09:30:44;;;;;;;11.10;6.57;;;;;;;10.88;29.21;101959.75;5016011;28;20037;-76
2022/03/10 09:33:10;;;;;;;14.32;7.55;;;;;;;10.79;29.12;101957.50;5039452;28;20042;-77
2022/03/10 09:35:35;;;;;;;12.05;6.82;;;;;;;10.74;29.75;101955.97;5020770;28;20025;-73
2022/03/10 09:38:01;;;;;;;14.00;6.82;;;;;;;10.84;30.13;101951.28;5014922;28;20022;-75
2022/03/10 09:40:26;;;;;;;25.48;7.13;;;;;;;10.63;29.03;101965.97;4998814;28;20033;-74
2022/03/10 09:42:51;;;;;;;12.25;6.47;;;;;;;10.65;30.13;101964.31;5033124;28;20068;-72
2022/03/10 09:45:18;;;;;;;10.70;6.97;;;;;;;10.71;29.70;101959.69;5015478;28;20064;-73
2022/03/10 09:47:44;;;;;;;13.18;8.07;;;;;;;10.80;29.93;101957.03;5015470;28;20386;-74
2022/03/10 09:50:13;;;;;;;9.23;6.18;;;;;;;10.97;29.03;101954.25;4995371;28;20042;-73
2022/03/10 09:52:41;;;;;;;14.20;7.25;;;;;;;11.01;29.13;101952.09;5020392;28;20545;-76
2022/03/10 09:55:07;;;;;;;10.93;5.72;;;;;;;10.97;28.49;101960.75;5022102;28;20057;-75
2022/03/10 09:57:37;;;;;;;10.30;6.20;;;;;;;10.94;29.67;101963.69;5036123;28;20025;-77
2022/03/10 10:00:04;;;;;;;13.07;6.70;;;;;;;11.03;29.49;101959.00;5037150;28;20403;-77
2022/03/10 10:02:30;;;;;;;27.40;7.85;;;;;;;10.97;29.12;101959.94;5020023;28;20041;-76
2022/03/10 10:04:56;;;;;;;10.93;6.22;;;;;;;11.02;28.80;101967.97;5037293;28;20021;-76
2022/03/10 10:07:25;;;;;;;18.00;6.88;;;;;;;10.94;29.21;101961.66;5038099;28;20025;-76
2022/03/10 10:09:56;;;;;;;13.15;6.15;;;;;;;10.87;27.73;101963.84;5037869;28;20079;-77
2022/03/10 10:12:29;;;;;;;14.00;6.50;;;;;;;10.48;29.23;101967.50;5037077;28;20037;-75
2022/03/10 10:14:56;;;;;;;16.35;8.40;;;;;;;10.41;29.81;101962.75;5036863;28;20025;-76
2022/03/10 10:17:29;;;;;;;10.48;5.68;;;;;;;10.47;29.06;101965.91;5036752;28;20055;-76
2022/03/10 10:19:57;;;;;;;8.93;5.30;;;;;;;10.54;27.19;101971.47;5036061;28;20045;-77
2022/03/10 10:22:24;;;;;;;9.60;5.32;;;;;;;10.28;29.20;101982.53;5018917;28;20036;-76
2022/03/10 10:24:51;;;;;;;8.10;5.70;;;;;;;10.20;28.66;101978.22;5035689;28;20034;-76
2022/03/10 10:27:19;;;;;;;10.00;5.45;;;;;;;10.20;28.85;101978.22;5036655;28;20033;-76
2022/03/10 10:29:54;;;;;;;12.40;5.38;;;;;;;10.04;28.67;101983.78;5035208;28;20044;-76
2022/03/10 10:32:46;;;;;;;13.40;6.70;;;;;;;9.59;29.51;101979.69;5036249;28;20072;-76
2022/03/10 10:35:13;;;;;;;6.55;4.22;;;;;;;9.73;27.99;101979.44;5036253;28;20025;-76
2022/03/10 10:37:42;;;;;;;10.18;5.63;;;;;;;9.72;27.39;101977.84;5034921;28;20025;-74
2022/03/10 10:40:08;;;;;;;7.47;4.85;;;;;;;9.55;28.78;101979.75;5035192;28;20107;-75
2022/03/10 10:42:39;;;;;;;10.50;5.00;;;;;;;9.26;28.80;101967.22;5034877;28;20025;-76
2022/03/10 10:45:40;;;;;;;8.68;3.83;;;;;;;9.26;27.86;101972.91;5035816;28;20557;-75
2022/03/10 10:48:08;;;;;;;12.07;5.20;;;;;;;9.32;27.05;101968.34;4997884;28;20026;-77
2022/03/10 10:50:42;;;;;;;15.80;4.97;;;;;;;9.21;27.49;101965.66;5040786;28;20049;-75
2022/03/10 10:53:08;;;;;;;27.70;7.05;;;;;;;9.10;28.20;101965.00;5055927;28;20059;-74
2022/03/10 10:55:38;;;;;;;20.95;6.43;;;;;;;9.00;27.85;101972.44;5035238;28;20120;-76
2022/03/10 10:58:07;;;;;;;7.90;4.25;;;;;;;8.75;29.01;101976.84;5054513;28;20020;-75
2022/03/10 11:00:44;;;;;;;9.07;5.53;;;;;;;8.61;29.33;101970.13;5055453;28;20028;-76
2022/03/10 11:03:26;;;;;;;7.40;5.32;;;;;;;8.77;28.77;101974.41;5055249;28;20037;-76
2022/03/10 11:05:52;;;;;;;10.68;4.75;;;;;;;8.76;28.73;101976.44;5054331;28;20025;-76
2022/03/10 11:08:20;;;;;;;7.63;4.90;;;;;;;8.78;27.60;101964.66;5055268;28;20032;-76
2022/03/10 11:10:46;;;;;;;9.32;5.55;;;;;;;8.71;27.74;101970.41;5022818;28;20497;-74
2022/03/10 11:13:11;;;;;;;8.52;4.50;;;;;;;8.44;27.55;101973.16;5035531;28;20482;-74
2022/03/10 11:15:38;;;;;;;16.60;6.93;;;;;;;8.37;28.05;101971.25;5018658;28;20035;-73
2022/03/10 11:18:04;;;;;;;15.98;6.35;;;;;;;8.30;28.31;101968.47;5019080;28;20021;-75